Time;durP1;ratioP1;P1;durP2;ratioP2;P2;SDS_P1;SDS_P2;PMS_P1;PMS_P2;Temp;Humidity;BMP_temperature;BMP_pressure;BME280_temperature;BME280_humidity;BME280_pressure;Samples;Min_cycle;Max_cycle;Signal;HPM_P1;HPM_P2
2021/07/18 00:01:04;;;;;;;11.90;10.63;;;20.40;99.90;;;;;;5092976;28;20478;-76
2021/07/18 00:03:31;;;;;;;10.60;9.03;;;20.50;99.90;;;;;;5092911;28;20878;-76
2021/07/18 00:05:58;;;;;;;11.23;9.80;;;20.50;99.90;;;;;;5093098;28;20458;-75
2021/07/18 00:08:25;;;;;;;10.73;9.07;;;20.50;99.90;;;;;;5093163;28;20454;-75
2021/07/18 00:10:53;;;;;;;11.47;10.27;;;20.50;99.90;;;;;;5092739;28;20915;-76
2021/07/18 00:13:20;;;;;;;11.20;10.03;;;20.40;99.90;;;;;;5092890;28;20442;-77
2021/07/18 00:15:47;;;;;;;12.90;9.43;;;20.40;99.90;;;;;;5093330;28;20495;-77
2021/07/18 00:18:14;;;;;;;10.00;8.83;;;20.50;99.90;;;;;;5092140;28;20457;-74
2021/07/18 00:20:41;;;;;;;12.00;9.30;;;20.50;99.90;;;;;;5092655;28;20818;-74
2021/07/18 00:23:08;;;;;;;12.27;9.60;;;20.50;99.90;;;;;;5092756;28;20533;-76
2021/07/18 00:25:35;;;;;;;11.30;8.93;;;20.40;99.90;;;;;;5092665;28;20527;-76
2021/07/18 00:28:04;;;;;;;11.93;9.50;;;20.30;99.90;;;;;;5092529;28;20485;-75
2021/07/18 00:30:30;;;;;;;11.40;9.87;;;20.30;99.90;;;;;;5092151;28;20478;-76
2021/07/18 00:32:58;;;;;;;11.47;9.57;;;20.40;99.90;;;;;;5092849;28;20538;-77
2021/07/18 00:35:25;;;;;;;11.60;9.40;;;20.40;99.90;;;;;;5092518;28;20450;-75
2021/07/18 00:37:51;;;;;;;11.10;9.53;;;20.40;99.90;;;;;;5092626;28;20442;-74
2021/07/18 00:40:18;;;;;;;12.03;9.20;;;20.40;99.90;;;;;;5092183;28;20466;-75
2021/07/18 00:42:45;;;;;;;12.23;9.70;;;20.40;99.90;;;;;;5092412;28;20505;-76
2021/07/18 00:45:13;;;;;;;10.67;9.40;;;20.30;99.90;;;;;;5092444;28;20940;-75
2021/07/18 00:47:42;;;;;;;10.17;8.90;;;20.20;99.90;;;;;;5092546;28;20876;-73
2021/07/18 00:50:10;;;;;;;10.93;9.83;;;20.20;99.90;;;;;;5092301;28;20475;-75
2021/07/18 00:52:37;;;;;;;11.30;9.27;;;20.20;99.90;;;;;;5092506;28;20440;-74
2021/07/18 00:55:05;;;;;;;10.70;9.60;;;20.20;99.90;;;;;;5092442;28;20451;-75
2021/07/18 00:57:33;;;;;;;12.60;9.70;;;20.10;99.90;;;;;;5092145;28;20530;-75
2021/07/18 01:00:01;;;;;;;11.70;8.97;;;20.20;99.90;;;;;;5092387;28;20561;-74
2021/07/18 01:02:29;;;;;;;12.17;9.80;;;20.20;99.90;;;;;;5092088;28;20483;-75
2021/07/18 01:04:56;;;;;;;10.43;9.10;;;20.20;99.90;;;;;;5092480;28;20457;-76
2021/07/18 01:07:24;;;;;;;11.47;9.40;;;20.10;99.90;;;;;;5092147;28;20449;-76
2021/07/18 01:09:51;;;;;;;10.57;9.10;;;20.10;99.90;;;;;;5092095;28;20475;-76
2021/07/18 01:12:18;;;;;;;11.73;8.87;;;20.00;99.90;;;;;;5091986;28;20447;-76
2021/07/18 01:14:45;;;;;;;10.13;8.73;;;19.90;99.90;;;;;;5092903;28;20444;-74
2021/07/18 01:17:12;;;;;;;10.00;8.90;;;20.00;99.90;;;;;;5092044;28;20446;-74
2021/07/18 01:19:41;;;;;;;11.97;9.30;;;20.00;99.90;;;;;;5092229;28;20467;-75
2021/07/18 01:22:09;;;;;;;9.27;8.13;;;19.90;99.90;;;;;;5091817;28;20527;-75
2021/07/18 01:24:36;;;;;;;9.00;7.83;;;19.90;99.90;;;;;;5091791;28;20449;-72
2021/07/18 01:27:05;;;;;;;8.90;7.50;;;19.80;99.90;;;;;;5091822;28;20548;-72
2021/07/18 01:29:34;;;;;;;9.93;8.10;;;19.60;99.90;;;;;;5093089;28;21002;-73
2021/07/18 01:32:01;;;;;;;10.47;7.97;;;19.60;99.90;;;;;;5095895;28;20532;-72
2021/07/18 01:34:29;;;;;;;8.90;8.00;;;19.60;99.90;;;;;;5095949;28;20454;-73
2021/07/18 01:36:56;;;;;;;7.87;7.07;;;19.60;99.90;;;;;;5095826;28;20449;-75
2021/07/18 01:39:25;;;;;;;8.23;7.30;;;19.60;99.90;;;;;;5095575;28;20470;-75
2021/07/18 01:41:55;;;;;;;9.57;7.60;;;19.70;99.90;;;;;;5095733;28;20570;-75
2021/07/18 01:44:22;;;;;;;7.87;7.00;;;19.70;99.90;;;;;;5095632;28;20449;-76
2021/07/18 01:46:49;;;;;;;7.17;6.47;;;19.60;99.90;;;;;;5095942;28;20448;-75
2021/07/18 01:49:16;;;;;;;8.00;6.37;;;19.60;99.90;;;;;;5095592;28;20473;-75
2021/07/18 01:51:43;;;;;;;7.73;6.90;;;19.50;99.90;;;;;;5095629;28;20481;-75
2021/07/18 01:54:12;;;;;;;7.83;6.80;;;19.50;99.90;;;;;;5095585;28;20449;-76
2021/07/18 01:56:40;;;;;;;8.20;7.03;;;19.60;99.90;;;;;;5095789;28;20446;-72
2021/07/18 01:59:07;;;;;;;7.50;6.17;;;19.50;99.90;;;;;;5099077;28;20541;-73
2021/07/18 02:01:35;;;;;;;8.53;6.50;;;19.50;99.90;;;;;;5097578;28;20486;-73
2021/07/18 02:04:02;;;;;;;6.87;6.20;;;19.40;99.90;;;;;;5098538;28;20437;-74
2021/07/18 02:06:30;;;;;;;7.27;6.57;;;19.40;99.90;;;;;;5098698;28;20453;-74
2021/07/18 02:08:58;;;;;;;7.00;6.30;;;19.40;99.90;;;;;;5097994;28;20444;-74
2021/07/18 02:11:26;;;;;;;7.37;6.27;;;19.40;99.90;;;;;;5097601;28;20449;-74
2021/07/18 02:13:56;;;;;;;6.90;5.90;;;19.40;99.90;;;;;;5097764;28;20506;-74
2021/07/18 02:16:23;;;;;;;6.63;5.93;;;19.40;99.90;;;;;;5097567;28;20439;-74
2021/07/18 02:18:51;;;;;;;6.43;5.77;;;19.30;99.90;;;;;;5096954;28;20445;-74
2021/07/18 02:21:19;;;;;;;6.27;5.63;;;19.30;99.90;;;;;;5096316;28;20976;-74
2021/07/18 02:23:46;;;;;;;5.80;5.23;;;19.20;99.90;;;;;;5096650;28;20444;-74
2021/07/18 02:26:13;;;;;;;8.93;6.37;;;19.20;99.90;;;;;;5096640;28;20443;-74
2021/07/18 02:28:40;;;;;;;6.07;5.40;;;19.10;99.90;;;;;;5096552;28;20441;-74
2021/07/18 02:31:09;;;;;;;8.23;5.85;;;19.20;99.90;;;;;;5097396;28;20235;-74
2021/07/18 02:33:36;;;;;;;5.88;5.28;;;19.20;99.90;;;;;;5097042;28;20303;-74
2021/07/18 02:36:04;;;;;;;5.43;4.93;;;19.10;99.90;;;;;;5096451;28;20298;-74
2021/07/18 02:38:31;;;;;;;6.23;5.20;;;19.10;99.90;;;;;;5096200;28;20915;-74
2021/07/18 02:40:59;;;;;;;6.93;5.43;;;19.10;99.90;;;;;;5095284;28;20552;-74
2021/07/18 02:43:26;;;;;;;7.63;5.97;;;19.10;99.90;;;;;;5096321;28;20497;-74
2021/07/18 02:45:52;;;;;;;5.97;4.90;;;19.10;99.90;;;;;;5096528;28;20447;-74
2021/07/18 02:48:21;;;;;;;6.22;5.30;;;19.10;99.90;;;;;;5095777;28;20295;-74
2021/07/18 02:50:48;;;;;;;7.40;4.73;;;19.00;99.90;;;;;;5096066;28;20220;-73
2021/07/18 02:53:15;;;;;;;6.28;5.00;;;18.90;99.90;;;;;;5096162;28;20520;-74
2021/07/18 02:55:42;;;;;;;6.07;5.18;;;18.80;99.90;;;;;;5096412;28;20201;-74
2021/07/18 02:58:09;;;;;;;5.07;4.47;;;18.90;99.90;;;;;;5096914;28;20214;-74
2021/07/18 03:00:35;;;;;;;5.35;4.60;;;18.90;99.90;;;;;;5095333;28;20322;-74
2021/07/18 03:03:02;;;;;;;6.35;4.85;;;19.00;99.90;;;;;;5095818;28;20222;-74
2021/07/18 03:05:31;;;;;;;7.00;5.30;;;19.00;99.90;;;;;;5095667;28;20198;-74
2021/07/18 03:07:57;;;;;;;5.32;4.82;;;19.00;99.90;;;;;;5096254;28;20206;-74
2021/07/18 03:10:24;;;;;;;5.07;4.57;;;19.10;99.90;;;;;;5095666;28;20219;-74
2021/07/18 03:12:51;;;;;;;5.70;4.80;;;19.00;99.90;;;;;;5095582;28;20202;-74
2021/07/18 03:15:18;;;;;;;5.85;5.20;;;19.00;99.90;;;;;;5095395;28;20207;-74
2021/07/18 03:17:46;;;;;;;5.72;5.13;;;19.00;99.90;;;;;;5095375;28;20553;-74
2021/07/18 03:20:15;;;;;;;7.82;6.03;;;19.00;99.90;;;;;;5094914;28;20222;-74
2021/07/18 03:22:44;;;;;;;5.13;4.40;;;19.00;99.90;;;;;;5095558;28;20218;-74
2021/07/18 03:25:12;;;;;;;5.65;4.90;;;18.90;99.90;;;;;;5095701;28;20202;-74
2021/07/18 03:27:39;;;;;;;5.23;4.67;;;18.90;99.90;;;;;;5095185;28;20208;-74
2021/07/18 03:30:09;;;;;;;5.88;4.60;;;18.70;99.90;;;;;;5094588;28;20503;-74
2021/07/18 03:32:36;;;;;;;6.22;5.30;;;18.70;99.90;;;;;;5095318;28;20556;-74
2021/07/18 03:35:04;;;;;;;8.02;4.95;;;18.50;99.90;;;;;;5095177;28;20202;-74
2021/07/18 03:37:31;;;;;;;5.25;4.75;;;18.40;99.90;;;;;;5095026;28;20208;-74
2021/07/18 03:39:59;;;;;;;5.53;4.60;;;18.40;99.90;;;;;;5095359;28;20224;-73
2021/07/18 03:42:26;;;;;;;7.57;4.90;;;18.20;99.90;;;;;;5094849;28;20758;-74
2021/07/18 03:44:53;;;;;;;5.70;4.90;;;18.30;99.90;;;;;;5095039;28;20305;-74
2021/07/18 03:47:20;;;;;;;13.88;5.22;;;18.30;99.90;;;;;;5095062;28;20296;-74
2021/07/18 03:49:47;;;;;;;7.18;5.20;;;18.30;99.90;;;;;;5094721;28;20228;-74
2021/07/18 03:52:14;;;;;;;7.00;4.47;;;18.30;99.90;;;;;;5094941;28;20205;-74
2021/07/18 03:54:40;;;;;;;6.00;5.20;;;18.20;99.90;;;;;;5095192;28;20213;-74
2021/07/18 03:57:09;;;;;;;4.80;4.38;;;18.20;99.90;;;;;;5094751;28;20288;-74
2021/07/18 03:59:35;;;;;;;5.03;4.20;;;18.10;99.90;;;;;;5094706;28;20236;-74
2021/07/18 04:02:02;;;;;;;5.28;4.72;;;18.20;99.90;;;;;;5094676;28;20202;-74
2021/07/18 04:04:29;;;;;;;4.70;4.13;;;18.30;99.90;;;;;;5094867;28;20204;-74
2021/07/18 04:06:56;;;;;;;4.75;4.28;;;18.30;99.90;;;;;;5094779;28;20646;-74
2021/07/18 04:09:22;;;;;;;10.40;6.15;;;18.30;99.90;;;;;;5094840;28;20228;-74
2021/07/18 04:11:49;;;;;;;6.45;4.40;;;18.30;99.90;;;;;;5094382;28;20209;-74
2021/07/18 04:14:18;;;;;;;5.68;4.97;;;18.30;99.90;;;;;;5094524;28;20198;-74
2021/07/18 04:16:44;;;;;;;5.28;4.57;;;18.40;99.90;;;;;;5094550;28;20205;-74
2021/07/18 04:19:11;;;;;;;4.78;4.20;;;18.40;99.90;;;;;;5094521;28;20638;-74
2021/07/18 04:21:38;;;;;;;4.28;3.90;;;18.40;99.90;;;;;;5093828;28;20198;-74
2021/07/18 04:24:05;;;;;;;4.47;4.07;;;18.30;99.90;;;;;;5093841;28;20604;-74
2021/07/18 04:26:32;;;;;;;4.97;3.80;;;18.30;99.90;;;;;;5094247;28;20206;-74
2021/07/18 04:28:59;;;;;;;4.72;4.07;;;18.30;99.90;;;;;;5093947;28;20218;-74
2021/07/18 04:31:28;;;;;;;3.80;3.40;;;18.30;99.90;;;;;;5093802;28;20212;-74
2021/07/18 04:33:54;;;;;;;4.70;4.30;;;18.30;99.90;;;;;;5093966;28;20293;-74
2021/07/18 04:36:21;;;;;;;4.00;3.60;;;18.30;99.90;;;;;;5094442;28;20289;-74
2021/07/18 04:38:48;;;;;;;3.92;3.53;;;18.30;99.90;;;;;;5093969;28;20560;-74
2021/07/18 04:41:15;;;;;;;3.50;3.20;;;18.30;99.90;;;;;;5093859;28;20228;-73
2021/07/18 04:43:41;;;;;;;4.63;4.13;;;18.30;99.90;;;;;;5094081;28;20248;-74
2021/07/18 04:46:08;;;;;;;5.35;3.83;;;18.40;99.90;;;;;;5094330;28;20671;-74
2021/07/18 04:48:36;;;;;;;4.88;3.60;;;18.40;99.90;;;;;;5094226;28;20301;-74
2021/07/18 04:51:03;;;;;;;6.10;4.00;;;18.40;99.90;;;;;;5093404;28;20680;-73
2021/07/18 04:53:30;;;;;;;6.80;4.00;;;18.50;99.90;;;;;;5093677;28;20241;-74
2021/07/18 04:55:58;;;;;;;4.38;3.95;;;18.40;99.90;;;;;;5093938;28;20293;-74
2021/07/18 04:58:25;;;;;;;4.03;3.40;;;18.50;99.90;;;;;;5094054;28;20213;-74
2021/07/18 05:00:52;;;;;;;4.50;3.50;;;18.50;99.90;;;;;;5093451;28;20226;-73
2021/07/18 05:03:18;;;;;;;3.50;3.20;;;18.40;99.90;;;;;;5094068;28;20226;-74
2021/07/18 05:05:47;;;;;;;4.30;3.45;;;18.20;99.90;;;;;;5100126;28;20216;-74
2021/07/18 05:08:13;;;;;;;4.47;3.90;;;18.30;99.90;;;;;;5100537;28;20223;-74
2021/07/18 05:10:40;;;;;;;4.10;3.70;;;18.30;99.90;;;;;;5100285;28;20312;-74
2021/07/18 05:13:07;;;;;;;3.85;3.45;;;18.30;99.90;;;;;;5100520;28;20197;-74
2021/07/18 05:15:34;;;;;;;5.13;3.92;;;18.20;99.90;;;;;;5100662;28;20652;-74
2021/07/18 05:18:11;;;;;;;3.63;3.30;;;18.30;99.90;;;;;;5100700;28;20202;-74
2021/07/18 05:20:39;;;;;;;3.75;3.15;;;18.30;99.90;;;;;;5099962;28;20221;-74
2021/07/18 05:23:07;;;;;;;3.63;3.30;;;18.30;99.90;;;;;;5099972;28;20727;-75
2021/07/18 05:25:34;;;;;;;8.18;4.65;;;18.30;99.90;;;;;;5100532;28;20206;-75
2021/07/18 05:28:01;;;;;;;5.55;3.75;;;18.40;99.90;;;;;;5100182;28;20571;-75
2021/07/18 05:30:29;;;;;;;3.05;2.75;;;18.40;99.90;;;;;;5099714;28;20230;-74
2021/07/18 05:32:56;;;;;;;3.80;3.50;;;18.10;99.90;;;;;;5100151;28;20198;-74
2021/07/18 05:35:24;;;;;;;3.20;2.92;;;18.00;99.90;;;;;;5100311;28;20205;-74
2021/07/18 05:37:51;;;;;;;3.28;2.50;;;18.00;99.90;;;;;;5100093;28;20210;-74
2021/07/18 05:40:19;;;;;;;3.40;3.10;;;17.90;99.90;;;;;;5099765;28;20312;-74
2021/07/18 05:42:47;;;;;;;3.55;3.00;;;17.90;99.90;;;;;;5100407;28;20305;-74
2021/07/18 05:45:15;;;;;;;3.78;2.83;;;17.80;99.90;;;;;;5100525;28;20581;-74
2021/07/18 05:47:42;;;;;;;3.10;2.65;;;17.90;99.90;;;;;;5099939;28;20212;-74
2021/07/18 05:50:10;;;;;;;2.60;2.20;;;17.90;99.90;;;;;;5100206;28;20228;-74
2021/07/18 05:52:37;;;;;;;3.00;2.63;;;17.90;99.90;;;;;;5100278;28;20289;-74
2021/07/18 05:55:06;;;;;;;2.20;2.00;;;18.00;99.90;;;;;;5100360;28;20232;-74
2021/07/18 05:57:34;;;;;;;2.30;2.20;;;18.00;99.90;;;;;;5099960;28;20207;-74
2021/07/18 06:00:02;;;;;;;2.30;2.10;;;18.10;99.90;;;;;;5099487;28;20706;-74
2021/07/18 06:02:32;;;;;;;2.35;2.15;;;18.10;99.90;;;;;;5100020;28;20219;-74
2021/07/18 06:04:59;;;;;;;2.50;2.30;;;18.20;99.90;;;;;;5100174;28;20202;-74
2021/07/18 06:07:28;;;;;;;2.40;2.20;;;18.20;99.90;;;;;;5100236;28;20290;-74
2021/07/18 06:09:55;;;;;;;2.45;2.17;;;18.10;99.90;;;;;;5099830;28;20271;-74
2021/07/18 06:12:22;;;;;;;2.47;2.20;;;18.20;99.90;;;;;;5100268;28;20208;-75
2021/07/18 06:14:50;;;;;;;2.45;2.25;;;18.30;99.90;;;;;;5099921;28;20285;-74
2021/07/18 06:17:17;;;;;;;2.75;2.50;;;18.30;99.90;;;;;;5095448;28;20652;-75
2021/07/18 06:19:44;;;;;;;2.55;2.00;;;18.40;99.90;;;;;;5096516;28;20312;-74
2021/07/18 06:22:11;;;;;;;2.33;1.92;;;18.40;99.90;;;;;;5096756;28;20210;-74
2021/07/18 06:24:38;;;;;;;4.45;2.40;;;18.30;99.90;;;;;;5096815;28;20608;-74
2021/07/18 06:27:07;;;;;;;1.65;1.40;;;18.30;99.90;;;;;;5096701;28;20233;-74
2021/07/18 06:29:33;;;;;;;1.77;1.67;;;18.30;99.90;;;;;;5096243;28;20283;-74
2021/07/18 06:32:02;;;;;;;5.57;1.98;;;18.20;99.90;;;;;;5096211;28;20208;-74
2021/07/18 06:34:29;;;;;;;2.35;2.15;;;18.20;99.90;;;;;;5096537;28;20687;-74
2021/07/18 06:36:56;;;;;;;2.00;1.83;;;18.30;99.90;;;;;;5096550;28;20648;-74
2021/07/18 06:39:23;;;;;;;2.38;1.90;;;18.30;99.90;;;;;;5096162;28;20583;-74
2021/07/18 06:41:50;;;;;;;1.77;1.67;;;18.30;99.90;;;;;;5096094;28;20202;-74
2021/07/18 06:44:16;;;;;;;2.20;1.90;;;18.40;99.90;;;;;;5096019;28;20698;-74
2021/07/18 06:46:43;;;;;;;2.55;2.35;;;18.40;99.90;;;;;;5096308;28;20225;-74
2021/07/18 06:49:11;;;;;;;1.73;1.63;;;18.40;99.90;;;;;;5096039;28;20297;-74
2021/07/18 06:51:38;;;;;;;2.85;2.15;;;18.40;99.90;;;;;;5095912;28;20198;-74
2021/07/18 06:54:05;;;;;;;2.13;1.92;;;18.50;99.90;;;;;;5095785;28;20255;-74
2021/07/18 06:56:32;;;;;;;1.95;1.85;;;18.50;99.90;;;;;;5096039;28;20296;-74
2021/07/18 06:58:59;;;;;;;3.80;2.20;;;18.60;99.90;;;;;;5095781;28;20206;-74
2021/07/18 07:01:26;;;;;;;4.28;2.03;;;18.70;99.90;;;;;;5095940;28;20436;-74
2021/07/18 07:03:53;;;;;;;3.05;2.08;;;18.70;99.90;;;;;;5096039;28;20257;-75
2021/07/18 07:06:21;;;;;;;2.13;2.00;;;18.90;99.90;;;;;;5096056;28;20207;-75
2021/07/18 07:08:48;;;;;;;2.60;1.90;;;19.40;99.90;;;;;;5095507;28;20446;-75
2021/07/18 07:11:16;;;;;;;2.03;1.83;;;19.90;99.90;;;;;;5095604;28;20471;-74
2021/07/18 07:13:43;;;;;;;2.70;2.20;;;20.10;99.90;;;;;;5096053;28;20863;-75
2021/07/18 07:16:09;;;;;;;3.23;2.13;;;20.10;99.90;;;;;;5095460;28;20452;-75
2021/07/18 07:18:36;;;;;;;2.30;2.10;;;20.20;99.90;;;;;;5096338;28;20984;-74
2021/07/18 07:21:03;;;;;;;2.97;2.20;;;20.40;99.90;;;;;;5095335;28;20548;-74
2021/07/18 07:23:31;;;;;;;2.63;2.10;;;20.50;99.90;;;;;;5095391;28;20566;-75
2021/07/18 07:25:59;;;;;;;2.37;2.03;;;20.30;99.90;;;;;;5095730;28;20433;-74
2021/07/18 07:28:26;;;;;;;2.43;2.23;;;20.40;99.90;;;;;;5095615;28;20438;-75
2021/07/18 07:30:53;;;;;;;2.27;2.07;;;20.30;99.90;;;;;;5095521;28;20578;-74
2021/07/18 07:33:20;;;;;;;2.30;2.10;;;20.40;99.90;;;;;;5095193;28;20849;-74
2021/07/18 07:35:47;;;;;;;2.50;2.30;;;20.50;99.90;;;;;;5095136;28;20460;-75
2021/07/18 07:38:14;;;;;;;2.40;2.20;;;20.60;99.90;;;;;;5095050;28;20440;-75
2021/07/18 07:40:43;;;;;;;2.50;2.20;;;20.80;99.90;;;;;;5095363;28;20567;-74
2021/07/18 07:43:09;;;;;;;1.67;1.57;;;21.20;99.90;;;;;;5094888;28;20451;-74
2021/07/18 07:45:36;;;;;;;2.10;1.90;;;21.30;99.90;;;;;;5094912;28;20490;-74
2021/07/18 07:48:04;;;;;;;2.00;1.87;;;21.30;99.90;;;;;;5095501;28;20523;-74
2021/07/18 07:50:31;;;;;;;2.37;1.90;;;21.10;99.90;;;;;;5094682;28;20466;-74
2021/07/18 07:52:58;;;;;;;1.83;1.73;;;21.10;99.90;;;;;;5095008;28;20862;-75
2021/07/18 07:55:25;;;;;;;3.13;2.40;;;21.50;99.90;;;;;;5095261;28;20440;-74
2021/07/18 07:57:53;;;;;;;3.07;2.77;;;22.50;99.90;;;;;;5094986;28;20468;-75
2021/07/18 08:00:22;;;;;;;2.90;2.50;;;23.60;99.90;;;;;;5094899;28;20476;-74
2021/07/18 08:02:49;;;;;;;2.13;1.93;;;24.50;99.90;;;;;;5094519;28;20488;-75
2021/07/18 08:05:17;;;;;;;2.60;2.33;;;25.30;99.10;;;;;;5094224;28;20994;-75
2021/07/18 08:07:44;;;;;;;2.30;2.10;;;25.90;96.80;;;;;;5094679;28;20923;-75
2021/07/18 08:10:14;;;;;;;2.40;2.30;;;25.90;94.50;;;;;;5094435;28;20468;-74
2021/07/18 08:12:42;;;;;;;2.30;2.20;;;25.60;94.70;;;;;;5094797;28;20439;-75
2021/07/18 08:15:13;;;;;;;2.30;2.03;;;25.00;96.30;;;;;;5094945;28;20471;-75
2021/07/18 08:17:40;;;;;;;2.70;2.30;;;25.20;96.70;;;;;;5094225;28;20906;-75
2021/07/18 08:20:09;;;;;;;2.93;2.10;;;25.90;94.50;;;;;;5094570;28;20466;-75
2021/07/18 08:22:36;;;;;;;2.40;2.20;;;27.00;92.30;;;;;;5094522;28;20437;-75
2021/07/18 08:25:04;;;;;;;2.20;2.00;;;27.50;91.50;;;;;;5094485;28;20494;-75
2021/07/18 08:27:31;;;;;;;2.30;2.10;;;29.00;89.30;;;;;;5094240;28;20448;-75
2021/07/18 08:29:58;;;;;;;2.17;2.07;;;29.00;83.90;;;;;;5093560;28;20571;-74
2021/07/18 08:32:26;;;;;;;2.60;2.40;;;28.40;84.80;;;;;;5094258;28;20442;-75
2021/07/18 08:34:53;;;;;;;2.30;2.10;;;27.50;88.30;;;;;;5094496;28;20440;-75
2021/07/18 08:37:20;;;;;;;3.77;3.00;;;27.80;86.60;;;;;;5094354;28;20884;-75
2021/07/18 08:39:47;;;;;;;4.33;2.97;;;27.60;87.60;;;;;;5093631;28;20550;-75
2021/07/18 08:42:15;;;;;;;2.60;2.40;;;27.40;86.30;;;;;;5094251;28;20532;-75
2021/07/18 08:44:43;;;;;;;2.10;2.00;;;28.00;87.70;;;;;;5093999;28;20480;-75
2021/07/18 08:47:10;;;;;;;3.07;2.60;;;28.70;83.30;;;;;;5094094;28;20450;-75
2021/07/18 08:49:40;;;;;;;2.90;2.70;;;29.30;79.30;;;;;;5093688;28;20470;-75
2021/07/18 08:52:07;;;;;;;2.60;2.40;;;29.30;78.50;;;;;;5094023;28;20452;-75
2021/07/18 08:54:34;;;;;;;3.23;2.90;;;29.50;77.10;;;;;;5094338;28;20433;-76
2021/07/18 08:57:03;;;;;;;3.87;3.27;;;30.80;77.50;;;;;;5093758;28;20444;-76
2021/07/18 08:59:31;;;;;;;2.67;2.47;;;30.60;71.60;;;;;;5093820;28;20478;-76
2021/07/18 09:02:00;;;;;;;2.70;2.53;;;30.70;71.80;;;;;;5093929;28;20505;-76
2021/07/18 09:04:27;;;;;;;3.03;2.70;;;30.90;71.30;;;;;;5094118;28;20814;-76
2021/07/18 09:06:55;;;;;;;3.03;2.73;;;31.40;69.70;;;;;;5094331;28;20458;-76
2021/07/18 09:09:23;;;;;;;2.87;2.40;;;31.70;67.50;;;;;;5094113;28;20968;-76
2021/07/18 09:11:56;;;;;;;2.03;1.90;;;31.60;68.00;;;;;;5093611;28;20440;-75
2021/07/18 09:14:23;;;;;;;3.07;2.80;;;31.50;64.40;;;;;;5093956;28;20437;-75
2021/07/18 09:16:52;;;;;;;2.93;2.73;;;31.20;64.30;;;;;;5094021;28;20525;-76
2021/07/18 09:19:23;;;;;;;3.10;2.90;;;30.40;66.20;;;;;;5093884;28;20443;-76
2021/07/18 09:22:11;;;;;;;3.07;2.77;;;29.90;70.20;;;;;;5093481;28;20433;-75
2021/07/18 09:24:41;;;;;;;2.60;2.40;;;30.50;70.00;;;;;;5093370;28;20476;-75
2021/07/18 09:27:11;;;;;;;2.70;2.43;;;29.70;69.00;;;;;;5093273;28;20452;-75
2021/07/18 09:29:41;;;;;;;2.53;2.33;;;29.20;72.00;;;;;;5093226;28;20559;-75
2021/07/18 09:32:11;;;;;;;2.20;2.10;;;28.40;76.50;;;;;;5093953;28;20447;-75
2021/07/18 09:34:39;;;;;;;3.00;2.80;;;28.50;75.80;;;;;;5093477;28;20442;-75
2021/07/18 09:37:13;;;;;;;2.97;2.77;;;28.10;75.40;;;;;;5093364;28;20853;-75
2021/07/18 09:39:41;;;;;;;2.80;2.60;;;28.40;74.20;;;;;;5093704;28;20479;-75
2021/07/18 09:42:08;;;;;;;2.23;2.03;;;28.80;74.40;;;;;;5093328;28;20802;-75
2021/07/18 09:44:46;;;;;;;2.63;2.43;;;29.10;76.40;;;;;;5093666;28;20476;-76
2021/07/18 09:47:13;;;;;;;2.93;2.33;;;29.70;72.50;;;;;;5093419;28;20458;-76
2021/07/18 09:49:40;;;;;;;2.10;2.00;;;30.00;70.60;;;;;;5093422;28;20464;-76
2021/07/18 09:52:22;;;;;;;2.93;2.67;;;31.10;68.90;;;;;;5096870;28;20455;-76
2021/07/18 09:54:51;;;;;;;2.53;2.40;;;30.80;68.60;;;;;;5097956;28;20431;-76
2021/07/18 09:57:36;;;;;;;2.80;2.60;;;31.80;66.00;;;;;;5097622;28;20448;-76
2021/07/18 10:00:07;;;;;;;6.77;6.13;;;32.20;63.00;;;;;;5097057;28;20566;-75
2021/07/18 10:02:33;;;;;;;2.60;2.40;;;33.00;63.40;;;;;;5097214;28;20462;-77
2021/07/18 10:05:01;;;;;;;2.47;2.27;;;33.90;60.30;;;;;;5097044;28;20867;-76
2021/07/18 10:07:35;;;;;;;3.23;2.77;;;35.20;55.90;;;;;;5097263;28;20436;-76
2021/07/18 10:10:03;;;;;;;2.40;2.30;;;34.50;54.20;;;;;;5096579;28;20468;-74
2021/07/18 10:12:30;;;;;;;2.40;2.20;;;34.80;54.70;;;;;;5097090;28;20440;-75
2021/07/18 10:14:59;;;;;;;2.83;2.63;;;33.10;55.20;;;;;;5097004;28;20760;-76
2021/07/18 10:17:28;;;;;;;2.80;2.60;;;31.50;57.50;;;;;;5086671;28;20460;-76
2021/07/18 10:19:55;;;;;;;3.43;2.57;;;29.80;64.30;;;;;;5090492;28;20482;-76
2021/07/18 10:22:23;;;;;;;2.50;2.30;;;29.90;66.40;;;;;;5095240;28;20454;-77
2021/07/18 10:24:54;;;;;;;3.60;2.70;;;30.10;66.00;;;;;;5095218;28;20486;-77
2021/07/18 10:27:22;;;;;;;2.20;2.10;;;30.60;65.00;;;;;;5095379;28;20459;-76
2021/07/18 10:29:52;;;;;;;2.37;2.17;;;30.60;62.60;;;;;;5094597;28;20850;-76
2021/07/18 10:32:21;;;;;;;3.87;2.63;;;30.30;65.30;;;;;;5097098;28;20444;-74
2021/07/18 10:34:52;;;;;;;2.70;2.50;;;30.30;65.90;;;;;;5095874;28;20440;-77
2021/07/18 10:37:19;;;;;;;3.57;2.20;;;29.50;64.70;;;;;;5095494;28;20448;-77
2021/07/18 10:39:46;;;;;;;2.70;2.50;;;30.50;66.40;;;;;;5095944;28;20464;-78
2021/07/18 10:42:30;;;;;;;2.43;2.23;;;30.80;65.50;;;;;;5095103;28;20531;-77
2021/07/18 10:44:57;;;;;;;2.83;2.60;;;30.10;64.10;;;;;;5094913;28;20475;-75
2021/07/18 10:47:44;;;;;;;2.50;2.40;;;29.30;68.80;;;;;;5097270;28;20444;-78
2021/07/18 10:50:12;;;;;;;2.73;2.53;;;27.90;72.00;;;;;;5095066;28;20472;-76
2021/07/18 10:52:39;;;;;;;3.90;2.83;;;26.90;77.60;;;;;;5094591;28;20539;-76
2021/07/18 10:55:22;;;;;;;2.37;2.17;;;26.40;80.10;;;;;;5094592;28;20454;-75
2021/07/18 10:57:52;;;;;;;3.50;2.70;;;26.50;83.80;;;;;;5094701;28;20871;-75
2021/07/18 11:00:22;;;;;;;2.97;2.53;;;26.30;80.20;;;;;;5094445;28;20471;-75
2021/07/18 11:03:03;;;;;;;2.70;2.43;;;25.80;83.30;;;;;;5093913;28;20448;-75
2021/07/18 11:05:39;;;;;;;2.20;2.00;;;25.40;85.10;;;;;;5094567;28;21046;-75
2021/07/18 11:08:06;;;;;;;2.97;2.50;;;25.10;86.70;;;;;;5094525;28;20442;-75
2021/07/18 11:10:48;;;;;;;2.63;2.43;;;25.00;88.60;;;;;;5094130;28;20471;-75
2021/07/18 11:13:16;;;;;;;3.00;2.70;;;24.80;87.90;;;;;;5094456;28;20524;-76
2021/07/18 11:15:44;;;;;;;2.50;2.30;;;24.90;90.60;;;;;;5094713;28;20443;-75
2021/07/18 11:18:13;;;;;;;2.50;2.30;;;24.90;89.60;;;;;;5094427;28;20470;-75
2021/07/18 11:21:00;;;;;;;2.43;2.23;;;25.10;91.30;;;;;;5093650;28;20474;-76
2021/07/18 11:23:37;;;;;;;2.60;2.40;;;25.10;87.40;;;;;;5085864;28;20505;-75
2021/07/18 11:26:11;;;;;;;2.33;2.00;;;25.00;90.40;;;;;;5093998;28;20489;-75
2021/07/18 11:29:05;;;;;;;2.83;2.23;;;25.10;90.60;;;;;;5093969;28;20447;-74
2021/07/18 11:31:46;;;;;;;2.70;2.50;;;25.00;90.20;;;;;;5086528;28;20840;-77
2021/07/18 11:34:15;;;;;;;2.90;2.60;;;25.10;91.50;;;;;;5095015;28;20806;-77
2021/07/18 11:37:01;;;;;;;2.67;2.47;;;25.40;91.50;;;;;;5094259;28;20444;-76
2021/07/18 11:39:28;;;;;;;3.10;2.80;;;25.30;88.60;;;;;;5094127;28;20496;-76
2021/07/18 11:41:57;;;;;;;2.50;2.30;;;25.40;93.80;;;;;;5094862;28;20531;-77
2021/07/18 11:44:27;;;;;;;3.97;2.57;;;25.30;91.00;;;;;;5094593;28;20444;-77
2021/07/18 11:46:56;;;;;;;2.90;2.60;;;25.10;91.00;;;;;;5096361;28;20539;-77
2021/07/18 11:49:28;;;;;;;2.63;2.33;;;25.30;92.70;;;;;;5096537;28;20471;-77
2021/07/18 11:51:55;;;;;;;2.50;2.30;;;25.60;93.10;;;;;;5094806;28;20455;-76
2021/07/18 11:54:22;;;;;;;3.00;2.70;;;25.30;89.60;;;;;;5093264;28;20451;-76
2021/07/18 11:56:51;;;;;;;3.07;2.87;;;25.30;92.00;;;;;;5093681;28;20493;-77
2021/07/18 11:59:19;;;;;;;4.10;2.60;;;25.70;91.10;;;;;;5094354;28;20452;-77
2021/07/18 12:01:49;;;;;;;3.10;2.90;;;26.00;89.60;;;;;;5093220;28;20814;-77
2021/07/18 12:04:19;;;;;;;3.13;2.70;;;25.80;89.40;;;;;;5093271;28;20443;-77
2021/07/18 12:06:46;;;;;;;2.50;2.30;;;25.70;90.00;;;;;;5094223;28;21067;-77
2021/07/18 12:09:15;;;;;;;2.97;2.70;;;25.80;90.30;;;;;;5094413;28;20942;-77
2021/07/18 12:11:42;;;;;;;2.87;2.67;;;25.50;90.40;;;;;;5095198;28;20451;-77
2021/07/18 12:14:10;;;;;;;2.80;2.60;;;25.50;92.40;;;;;;5093817;28;20444;-76
2021/07/18 12:16:38;;;;;;;3.47;3.17;;;25.60;91.70;;;;;;5095001;28;20531;-77
2021/07/18 12:19:08;;;;;;;3.00;2.70;;;25.40;91.60;;;;;;5096786;28;20505;-78
2021/07/18 12:21:37;;;;;;;5.73;4.10;;;25.30;92.30;;;;;;5100646;28;20538;-77
2021/07/18 12:24:25;;;;;;;4.50;3.90;;;25.40;90.90;;;;;;5096915;28;20451;-77
2021/07/18 12:27:03;;;;;;;4.63;4.17;;;25.50;92.10;;;;;;5093169;28;20533;-76
2021/07/18 12:29:32;;;;;;;7.20;4.50;;;25.80;90.90;;;;;;5092770;28;20841;-76
2021/07/18 12:31:59;;;;;;;5.43;4.30;;;25.80;87.20;;;;;;5093161;28;20787;-77
2021/07/18 12:34:29;;;;;;;7.30;5.60;;;25.80;88.90;;;;;;5092911;28;20447;-75
2021/07/18 12:36:59;;;;;;;4.93;4.43;;;26.00;89.10;;;;;;5092875;28;20448;-75
2021/07/18 12:39:28;;;;;;;6.63;6.03;;;26.00;88.00;;;;;;5092776;28;20507;-76
2021/07/18 12:41:58;;;;;;;6.30;5.10;;;26.00;88.00;;;;;;5092786;28;20448;-77
2021/07/18 12:44:28;;;;;;;8.90;4.70;;;26.20;89.60;;;;;;5093368;28;20455;-75
2021/07/18 12:47:34;;;;;;;7.30;5.50;;;26.40;89.60;;;;;;5092907;28;20484;-74
2021/07/18 12:50:18;;;;;;;7.80;7.00;;;26.30;85.10;;;;;;5092261;28;20468;-73
2021/07/18 12:53:10;;;;;;;7.90;6.47;;;26.00;88.00;;;;;;5092983;28;20828;-73